Relatórios de METAR próximas

 

LPPR - Porto, Portugal, PT
Distance from station: N 52km
Actualizado: 04/03/2021 19:00
Parc. Nublado
Parc. Nublado
 Vento de N
Vento: N 6 km/h
Temperatura: 13°C
Ponto de Orvalho: 12°C
Humidade: 94%
Barómetro: 1014 hPa
Nuvens: Parc. Nublado
Visibilidade: 8 km
Cloud details: Few Clouds 579 m
Parc. Nublado 671 m
2021/03/04 19:00 LPPR 041900Z 36003KT 320V050 8000 FEW019 SCT022 13/12 Q1014